Thursday, May 26, 2016, 10:25 AM EDT

KESN, Easton / Newman Field

Location: Easton, MD, United States Lat: 38.8
Local Time: 10:25 AM EDT (14:25 GMT) Lon: -76.067
Time Zone: US/Eastern Elev: 72 ft

Show me the last for .
Show Decoded

2016-05-26 09:50 METAR KESN 261350Z 22004KT 10SM SCT250 27/19 A3016 =
2016-05-26 08:50 METAR KESN 261250Z 23004KT 10SM SCT250 25/19 A3017 =
2016-05-26 07:50 METAR KESN 261150Z 21003KT 10SM SCT250 22/19 A3017 =
2016-05-26 06:50 METAR KESN 261050Z 00000KT 10SM SCT250 18/18 A3017 =
2016-05-26 05:55 METAR KESN 260955Z 00000KT 10SM SCT250 17/17 A3016 =
2016-05-26 05:50 METAR KESN 260950Z AUTO 00000KT 10SM CLR 17/17 A3016 RMK AO2 T01670166 =
2016-05-26 05:33 METAR KESN 260933Z AUTO 00000KT 10SM CLR 17/17 A3016 =
2016-05-26 05:13 METAR KESN 260913Z AUTO 00000KT 10SM CLR 17/17 A3015 RMK AO2 T01670166 =
2016-05-26 04:53 METAR KESN 260853Z AUTO 00000KT 10SM CLR 18/17 A3015 RMK AO2 T01750170 =
2016-05-26 04:33 METAR KESN 260833Z AUTO 00000KT 10SM CLR 18/17 A3015 RMK AO2 T01750165 =
2016-05-26 04:13 METAR KESN 260813Z AUTO 00000KT 10SM CLR 18/17 A3014 RMK AO2 T01750165 =
2016-05-26 03:53 METAR KESN 260753Z AUTO 00000KT 10SM CLR 18/17 A3014 RMK AO2 T01750165 =
2016-05-26 03:33 METAR KESN 260733Z AUTO 00000KT 10SM CLR 18/17 A3014 RMK AO2 T01810166 =
2016-05-26 03:13 METAR KESN 260713Z AUTO 00000KT 10SM CLR 18/17 A3014 RMK AO2 T01830166 =
2016-05-26 02:53 METAR KESN 260653Z AUTO 00000KT 10SM CLR 19/17 A3014 RMK AO2 T01860165 =
2016-05-26 02:33 METAR KESN 260633Z AUTO 21003KT 10SM CLR 19/16 A3015 RMK AO2 T01920163 =
2016-05-26 02:12 METAR KESN 260612Z AUTO 21003KT 10SM CLR 20/16 A3015 RMK AO2 T01950162 =
2016-05-26 01:52 METAR KESN 260552Z AUTO 00000KT 10SM CLR 20/16 A3015 RMK AO2 T01960160 =
2016-05-26 01:32 METAR KESN 260532Z AUTO 22003KT 10SM CLR 20/16 A3015 RMK AO2 T02030158 =
2016-05-26 01:12 METAR KESN 260512Z AUTO 21003KT 10SM CLR 21/16 A3015 RMK AO2 T02050155 =
2016-05-26 00:52 METAR KESN 260452Z AUTO 00000KT 10SM CLR 21/16 A3015 RMK AO2 T02050157 =
2016-05-26 00:32 METAR KESN 260432Z AUTO 22003KT 10SM CLR 21/16 A3016 RMK AO2 T02070156 =
2016-05-26 00:12 METAR KESN 260412Z AUTO 21003KT 10SM CLR 21/16 A3015 RMK AO2 T02100156 =
2016-05-25 23:52 METAR KESN 260352Z AUTO 23003KT 10SM CLR 21/16 A3015 RMK AO2 T02140156 =
2016-05-25 23:32 METAR KESN 260332Z AUTO 00000KT 10SM CLR 21/16 A3015 RMK AO2 T02060158 =
2016-05-25 23:12 METAR KESN 260312Z AUTO 00000KT 10SM CLR 21/16 A3016 RMK AO2 T02140158 =
2016-05-25 22:52 METAR KESN 260252Z AUTO 00000KT 10SM CLR 22/16 A3016 RMK AO2 T02220157 =
2016-05-25 22:32 METAR KESN 260232Z AUTO 00000KT 10SM CLR 22/16 A3016 RMK AO2 T02230158 =
2016-05-25 22:12 METAR KESN 260212Z AUTO 21003KT 10SM CLR 23/16 A3016 RMK AO2 T02250160 =
2016-05-25 21:50 METAR KESN 260150Z 20004KT 10SM CLR 23/16 A3016 =
2016-05-25 19:50 METAR KESN 252350Z 23005KT 10SM CLR 27/16 A3014 =
2016-05-25 18:50 METAR KESN 252250Z 23005KT 10SM CLR 28/16 A3014 =
2016-05-25 17:50 METAR KESN 252150Z 22007KT 10SM CLR 29/15 A3014 =
2016-05-25 16:50 METAR KESN 252050Z 22009KT 10SM SKC 29/16 A3016 =
2016-05-25 15:54 METAR KESN 251954Z 22007KT 10SM SKC 29/15 A3015 =
2016-05-25 14:50 METAR KESN 251850Z 25006KT 10SM CLR 30/15 A3016 =
2016-05-25 13:46 METAR KESN 251746Z 26006KT 10SM BKN250 29/15 A3018 =
2016-05-25 12:55 METAR KESN 251655Z 29006KT 10SM BKN250 29/14 A3018 =
2016-05-25 11:50 METAR KESN 251550Z 30006KT 10SM SCT250 28/17 A3018 =
2016-05-25 10:45 METAR KESN 251445Z 30005KT 10SM SCT250 27/17 A3018 =

Support USWX by starting your Amazon purchase here.